createdAt,value
2022-12-07T00:01:27.617Z,3.32
2022-12-07T00:03:58.119Z,3.28
2022-12-07T00:06:24.619Z,3.21
2022-12-07T00:08:51.188Z,3.17
2022-12-07T00:11:22.584Z,3.20
2022-12-07T00:13:53.777Z,3.33
2022-12-07T00:16:22.386Z,3.09
2022-12-07T00:18:49.237Z,3.06
2022-12-07T00:21:18.841Z,3.18
2022-12-07T00:23:47.153Z,3.11
2022-12-07T00:26:19.965Z,3.05
2022-12-07T00:28:48.789Z,3.13
2022-12-07T00:31:17.707Z,3.13
2022-12-07T00:33:44.772Z,2.85
2022-12-07T00:36:14.221Z,2.93
2022-12-07T00:38:41.756Z,2.86
2022-12-07T00:41:10.872Z,3.01
2022-12-07T00:43:37.493Z,2.95
2022-12-07T00:46:04.620Z,2.83
2022-12-07T00:48:31.287Z,2.83
2022-12-07T00:50:57.720Z,2.98
2022-12-07T00:53:25.060Z,2.99
2022-12-07T00:55:51.672Z,2.83
2022-12-07T00:58:18.289Z,2.71
2022-12-07T01:00:45.163Z,2.77
2022-12-07T01:03:13.599Z,2.75
2022-12-07T01:05:41.126Z,2.78
2022-12-07T01:08:07.976Z,2.74
2022-12-07T01:10:34.493Z,2.78
2022-12-07T01:13:01.154Z,2.73
2022-12-07T01:15:27.664Z,2.69
2022-12-07T01:17:55.762Z,2.65
2022-12-07T01:20:22.418Z,2.78
2022-12-07T01:22:48.812Z,2.71
2022-12-07T01:25:15.213Z,2.80
2022-12-07T01:27:41.840Z,2.77
2022-12-07T01:30:09.032Z,2.93
2022-12-07T01:32:35.595Z,2.99
2022-12-07T01:35:01.942Z,3.05
2022-12-07T01:37:28.365Z,3.10
2022-12-07T01:39:54.994Z,3.06
2022-12-07T01:42:21.765Z,2.93
2022-12-07T01:45:16.109Z,2.95
2022-12-07T01:47:44.776Z,2.83
2022-12-07T01:50:11.453Z,2.83
2022-12-07T01:52:40.594Z,2.68
2022-12-07T01:55:14.529Z,2.61
2022-12-07T01:57:44.406Z,2.56
2022-12-07T02:00:12.477Z,2.57
2022-12-07T02:02:45.485Z,2.62
2022-12-07T02:05:12.746Z,2.58
2022-12-07T02:07:39.890Z,2.62
2022-12-07T02:10:13.757Z,2.70
2022-12-07T02:12:40.756Z,2.61
2022-12-07T02:15:08.512Z,2.57
2022-12-07T02:17:47.208Z,2.48
2022-12-07T02:20:42.960Z,2.55
2022-12-07T02:23:29.123Z,2.53
2022-12-07T02:26:01.642Z,2.58
2022-12-07T02:28:34.451Z,2.48
2022-12-07T02:31:16.404Z,2.49
2022-12-07T02:33:51.881Z,2.52
2022-12-07T02:36:27.316Z,2.51
2022-12-07T02:39:08.052Z,2.45
2022-12-07T02:41:38.913Z,2.57
2022-12-07T02:44:10.323Z,2.62
2022-12-07T02:46:48.401Z,2.47
2022-12-07T02:49:15.502Z,2.55
2022-12-07T02:51:44.573Z,2.50
2022-12-07T02:54:14.470Z,2.40
2022-12-07T02:56:59.413Z,2.53
2022-12-07T02:59:44.583Z,2.60
2022-12-07T03:02:34.089Z,2.59
2022-12-07T03:05:21.963Z,2.57
2022-12-07T03:08:16.720Z,2.47
2022-12-07T03:10:57.089Z,2.43
2022-12-07T03:13:35.975Z,2.55
2022-12-07T03:16:26.369Z,2.48
2022-12-07T03:19:19.057Z,2.46
2022-12-07T03:21:58.340Z,2.42
2022-12-07T03:24:30.379Z,2.51
2022-12-07T03:27:03.671Z,2.57
2022-12-07T03:29:37.962Z,2.45
2022-12-07T03:32:18.231Z,2.40
2022-12-07T03:35:02.607Z,2.49
2022-12-07T03:37:41.222Z,2.43
2022-12-07T03:40:19.414Z,2.54
2022-12-07T03:42:46.582Z,2.51
2022-12-07T03:45:13.833Z,2.56
2022-12-07T03:47:50.659Z,2.35
2022-12-07T03:50:32.237Z,2.42
2022-12-07T03:53:12.553Z,2.49
2022-12-07T03:55:43.522Z,2.74
2022-12-07T03:58:13.416Z,2.82
2022-12-07T04:00:42.394Z,2.66
2022-12-07T04:03:09.088Z,2.62
2022-12-07T04:05:36.249Z,2.53
2022-12-07T04:08:02.859Z,2.66
2022-12-07T04:10:29.390Z,2.67
2022-12-07T04:12:56.470Z,2.65
2022-12-07T04:15:23.447Z,2.64
2022-12-07T04:17:50.553Z,2.70
2022-12-07T04:20:17.120Z,2.53
2022-12-07T04:22:43.645Z,2.43
2022-12-07T04:25:10.030Z,2.39
2022-12-07T04:27:36.610Z,2.39
2022-12-07T04:30:03.848Z,2.39
2022-12-07T04:32:30.865Z,2.38
2022-12-07T04:34:57.365Z,2.41
2022-12-07T04:37:24.071Z,2.22
2022-12-07T04:39:51.084Z,2.19
2022-12-07T04:42:17.439Z,2.21
2022-12-07T04:44:43.772Z,2.15
2022-12-07T04:47:10.185Z,2.22
2022-12-07T04:49:36.599Z,2.20
2022-12-07T04:52:03.269Z,2.13
2022-12-07T04:54:30.115Z,2.16
2022-12-07T04:56:56.563Z,1.94
2022-12-07T04:59:23.069Z,1.95
2022-12-07T05:01:49.745Z,1.80
2022-12-07T05:04:17.178Z,1.79
2022-12-07T05:06:43.695Z,1.71
2022-12-07T05:09:11.081Z,1.69
2022-12-07T05:11:40.695Z,1.69
2022-12-07T05:14:17.056Z,1.66
2022-12-07T05:16:45.007Z,1.81
2022-12-07T05:19:12.426Z,1.61
2022-12-07T05:21:39.456Z,1.58
2022-12-07T05:24:07.589Z,1.57
2022-12-07T05:26:34.398Z,1.54
2022-12-07T05:29:01.186Z,1.53
2022-12-07T05:31:28.873Z,1.53
2022-12-07T05:33:56.124Z,1.65
2022-12-07T05:36:22.618Z,1.68
2022-12-07T05:38:49.172Z,1.58
2022-12-07T05:41:36.264Z,1.37
2022-12-07T05:44:03.380Z,1.24
2022-12-07T05:46:29.867Z,1.17
2022-12-07T05:48:56.447Z,1.22
2022-12-07T05:51:22.834Z,1.15
2022-12-07T05:53:49.422Z,1.07
2022-12-07T05:56:15.993Z,1.08
2022-12-07T05:59:01.135Z,1.00
2022-12-07T06:01:27.964Z,1.03
2022-12-07T06:03:54.625Z,1.00
2022-12-07T06:06:21.163Z,1.00
2022-12-07T06:08:47.826Z,0.96
2022-12-07T06:11:32.543Z,1.01
2022-12-07T06:13:59.342Z,0.98
2022-12-07T06:16:25.872Z,0.87
2022-12-07T06:18:52.243Z,0.86
2022-12-07T06:21:18.754Z,0.88
2022-12-07T06:23:45.272Z,0.84
2022-12-07T06:26:11.770Z,0.82
2022-12-07T06:28:38.298Z,0.75
2022-12-07T06:31:07.330Z,0.72
2022-12-07T06:33:39.558Z,0.68
2022-12-07T06:36:06.350Z,0.55
2022-12-07T06:38:32.920Z,0.54
2022-12-07T06:40:59.456Z,0.40
2022-12-07T06:43:26.042Z,0.35
2022-12-07T06:45:52.651Z,0.37
2022-12-07T06:48:19.035Z,0.37
2022-12-07T06:50:51.186Z,0.34
2022-12-07T06:53:20.798Z,0.34
2022-12-07T06:55:47.121Z,0.35
2022-12-07T06:58:13.874Z,0.37
2022-12-07T07:00:40.564Z,0.41
2022-12-07T07:03:07.495Z,0.36
2022-12-07T07:05:33.999Z,0.42
2022-12-07T07:10:47.063Z,0.50
2022-12-07T07:13:14.503Z,0.53
2022-12-07T07:15:41.351Z,0.54
2022-12-07T07:18:08.214Z,0.54
2022-12-07T07:20:34.908Z,0.54
2022-12-07T07:23:01.600Z,0.63
2022-12-07T07:25:28.137Z,0.64
2022-12-07T07:27:54.754Z,0.70
2022-12-07T07:30:21.561Z,0.83
2022-12-07T07:32:48.125Z,0.90
2022-12-07T07:35:15.237Z,0.91
2022-12-07T07:37:42.281Z,1.03
2022-12-07T07:40:09.929Z,1.15
2022-12-07T07:42:37.402Z,1.28
2022-12-07T07:45:04.323Z,1.41
2022-12-07T07:47:30.891Z,1.50
2022-12-07T07:49:58.242Z,1.59
2022-12-07T07:52:24.748Z,1.84
2022-12-07T07:54:51.243Z,2.17
2022-12-07T07:57:18.614Z,2.28
2022-12-07T07:59:45.207Z,2.44
2022-12-07T08:02:15.912Z,2.67
2022-12-07T08:04:42.533Z,2.89
2022-12-07T08:07:09.213Z,2.95
2022-12-07T08:09:35.728Z,2.93
2022-12-07T08:12:02.664Z,2.93
2022-12-07T08:14:29.921Z,2.89
2022-12-07T08:16:56.516Z,3.23
2022-12-07T08:19:23.266Z,3.44
2022-12-07T08:21:49.674Z,3.29
2022-12-07T08:24:16.171Z,3.27
2022-12-07T08:26:42.911Z,2.92
2022-12-07T08:29:09.611Z,2.93
2022-12-07T08:31:37.381Z,2.84
2022-12-07T08:34:03.954Z,2.87
2022-12-07T08:36:30.467Z,2.94
2022-12-07T08:39:29.743Z,3.08
2022-12-07T08:41:43.363Z,2.83
2022-12-07T08:44:09.955Z,2.76
2022-12-07T08:46:40.649Z,2.84
2022-12-07T08:49:14.046Z,2.83
2022-12-07T08:51:41.771Z,2.79
2022-12-07T08:54:12.129Z,2.78
2022-12-07T08:56:39.071Z,2.93
2022-12-07T08:59:07.124Z,2.92
2022-12-07T09:01:34.166Z,2.81
2022-12-07T09:04:00.613Z,2.88
2022-12-07T09:06:27.728Z,2.67
2022-12-07T09:08:59.094Z,2.70
2022-12-07T09:11:28.810Z,3.07
2022-12-07T09:13:55.788Z,3.12
2022-12-07T09:16:22.261Z,3.00
2022-12-07T09:18:48.950Z,3.00
2022-12-07T09:21:15.879Z,3.07
2022-12-07T09:23:43.699Z,2.97
2022-12-07T09:26:11.197Z,2.86
2022-12-07T09:28:38.148Z,2.97
2022-12-07T09:33:57.299Z,3.05
2022-12-07T09:36:24.333Z,3.09
2022-12-07T09:38:50.842Z,3.00
2022-12-07T09:41:17.547Z,3.15
2022-12-07T09:43:44.522Z,3.03
2022-12-07T09:46:17.898Z,3.27
2022-12-07T09:48:46.482Z,3.29
2022-12-07T09:51:25.050Z,3.30
2022-12-07T09:53:54.872Z,3.12
2022-12-07T09:56:22.937Z,3.09
2022-12-07T09:58:50.383Z,3.13
2022-12-07T10:01:21.021Z,3.16
2022-12-07T10:04:00.097Z,3.29
2022-12-07T10:06:26.679Z,3.08
2022-12-07T10:08:53.297Z,3.02
2022-12-07T10:11:19.818Z,3.16
2022-12-07T10:13:55.161Z,3.15
2022-12-07T10:16:24.891Z,3.43
2022-12-07T10:18:56.473Z,3.43
2022-12-07T10:21:28.860Z,3.45
2022-12-07T10:24:07.170Z,3.81
2022-12-07T10:26:47.912Z,3.60
2022-12-07T10:29:48.432Z,3.70
2022-12-07T10:32:14.844Z,3.46
2022-12-07T10:34:46.185Z,3.68
2022-12-07T10:37:18.849Z,3.84
2022-12-07T10:39:47.130Z,3.84
2022-12-07T10:42:30.929Z,3.86
2022-12-07T10:45:11.270Z,3.85
2022-12-07T10:47:45.439Z,3.87
2022-12-07T10:50:49.466Z,4.10
2022-12-07T10:53:32.684Z,3.91
2022-12-07T10:56:07.518Z,4.14
2022-12-07T10:59:01.593Z,4.12
2022-12-07T11:01:47.462Z,4.09
2022-12-07T11:04:37.430Z,4.02
2022-12-07T11:07:19.128Z,4.24
2022-12-07T11:10:08.744Z,4.17
2022-12-07T11:12:52.727Z,4.01
2022-12-07T11:15:29.743Z,3.95
2022-12-07T11:18:08.860Z,3.90
2022-12-07T11:20:42.805Z,3.66
2022-12-07T11:23:18.370Z,3.83
2022-12-07T11:26:11.893Z,3.71
2022-12-07T11:28:57.255Z,3.72
2022-12-07T11:31:38.114Z,3.62
2022-12-07T11:34:16.342Z,3.73
2022-12-07T11:36:46.112Z,3.87
2022-12-07T11:39:33.631Z,4.10
2022-12-07T11:42:10.878Z,4.05
2022-12-07T11:44:46.622Z,3.93
2022-12-07T11:47:35.741Z,3.89
2022-12-07T11:50:28.310Z,4.00
2022-12-07T11:53:10.137Z,4.00
2022-12-07T11:55:54.529Z,3.66
2022-12-07T11:58:34.528Z,3.75
2022-12-07T12:01:26.465Z,3.91
2022-12-07T12:04:10.876Z,3.72
2022-12-07T12:06:45.736Z,3.93
2022-12-07T12:15:26.284Z,4.12
2022-12-07T12:18:16.792Z,4.11
2022-12-07T12:21:10.580Z,4.01
2022-12-07T12:23:44.026Z,3.94
2022-12-07T12:26:23.408Z,4.03
2022-12-07T12:29:00.534Z,4.04
2022-12-07T12:31:40.818Z,4.18
2022-12-07T12:34:32.718Z,4.00
2022-12-07T12:36:59.616Z,3.98
2022-12-07T12:39:26.426Z,4.05
2022-12-07T12:41:55.634Z,4.22
2022-12-07T12:44:22.122Z,4.13
2022-12-07T12:47:02.974Z,4.16
2022-12-07T12:49:29.301Z,4.13
2022-12-07T12:51:58.531Z,4.12
2022-12-07T12:54:33.693Z,4.07
2022-12-07T12:57:25.066Z,4.11
2022-12-07T12:59:54.291Z,4.12
2022-12-07T13:02:49.909Z,4.42
2022-12-07T13:05:16.255Z,4.31
2022-12-07T13:07:46.059Z,4.28
2022-12-07T13:10:23.346Z,4.16
2022-12-07T13:13:20.774Z,4.19
2022-12-07T13:15:55.558Z,4.13
2022-12-07T13:18:28.274Z,4.16
2022-12-07T13:21:01.437Z,4.38
2022-12-07T13:23:32.315Z,4.27
2022-12-07T13:26:17.411Z,4.29
2022-12-07T13:29:22.429Z,4.35
2022-12-07T13:31:50.407Z,4.38
2022-12-07T13:34:36.977Z,4.37
2022-12-07T13:37:13.700Z,4.31
2022-12-07T13:39:49.601Z,4.62
2022-12-07T13:42:36.114Z,4.33
2022-12-07T13:45:23.232Z,4.52
2022-12-07T13:47:55.151Z,4.30
2022-12-07T13:50:30.829Z,4.23
2022-12-07T13:52:59.140Z,4.32
2022-12-07T13:55:26.586Z,4.38
2022-12-07T13:57:55.083Z,4.20
2022-12-07T14:00:25.108Z,4.24
2022-12-07T14:03:05.412Z,4.18
2022-12-07T14:05:34.308Z,4.27
2022-12-07T14:08:04.373Z,4.17
2022-12-07T14:10:43.516Z,4.37
2022-12-07T14:13:42.172Z,4.14
2022-12-07T14:16:29.208Z,4.24
2022-12-07T14:18:58.338Z,4.29
2022-12-07T14:21:30.320Z,4.16
2022-12-07T14:24:17.338Z,4.05
2022-12-07T14:26:44.791Z,4.18
2022-12-07T14:29:23.529Z,4.15
2022-12-07T14:31:50.538Z,4.28
2022-12-07T14:34:17.185Z,4.25
2022-12-07T14:36:44.877Z,4.17
2022-12-07T14:39:13.454Z,4.12
2022-12-07T14:41:52.246Z,4.20
2022-12-07T14:44:24.899Z,4.24
2022-12-07T14:49:40.995Z,4.19
2022-12-07T14:55:01.125Z,4.05
2022-12-07T14:57:27.798Z,4.15
2022-12-07T14:59:54.310Z,3.94
2022-12-07T15:02:20.827Z,4.10
2022-12-07T15:04:47.388Z,4.19
2022-12-07T15:07:22.255Z,4.08
2022-12-07T15:09:49.313Z,4.07
2022-12-07T15:12:16.388Z,4.04
2022-12-07T15:14:42.753Z,4.02
2022-12-07T15:17:23.103Z,3.98
2022-12-07T15:19:52.728Z,3.83
2022-12-07T15:22:19.183Z,3.73
2022-12-07T15:24:45.702Z,3.79
2022-12-07T15:27:12.352Z,3.85
2022-12-07T15:29:38.789Z,3.87
2022-12-07T15:32:05.595Z,3.69
2022-12-07T15:34:39.624Z,3.79
2022-12-07T15:37:07.393Z,3.71
2022-12-07T15:39:33.860Z,3.72
2022-12-07T15:42:00.193Z,3.67
2022-12-07T15:44:45.345Z,3.55
2022-12-07T15:47:11.930Z,3.70
2022-12-07T15:49:38.471Z,3.68
2022-12-07T15:52:04.965Z,3.59
2022-12-07T15:54:33.049Z,3.72
2022-12-07T15:56:59.496Z,3.63
2022-12-07T15:59:28.086Z,3.63
2022-12-07T16:01:54.795Z,3.56
2022-12-07T16:04:21.584Z,3.47
2022-12-07T16:06:48.108Z,3.52
2022-12-07T16:09:15.138Z,3.57
2022-12-07T16:11:41.465Z,3.55
2022-12-07T16:14:08.014Z,3.53
2022-12-07T16:16:34.474Z,3.52
2022-12-07T16:19:01.085Z,3.57
2022-12-07T16:21:27.621Z,3.58
2022-12-07T16:23:54.188Z,3.54
2022-12-07T16:26:22.731Z,3.44
2022-12-07T16:28:50.942Z,3.47
2022-12-07T16:31:20.032Z,3.51
2022-12-07T16:33:47.317Z,3.47
2022-12-07T16:36:28.884Z,3.50
2022-12-07T16:39:04.378Z,3.41
2022-12-07T16:41:31.389Z,3.40
2022-12-07T16:43:57.961Z,3.39
2022-12-07T16:46:24.590Z,3.35
2022-12-07T16:48:51.138Z,3.26
2022-12-07T16:51:17.535Z,3.33
2022-12-07T16:53:44.105Z,3.34
2022-12-07T16:56:13.101Z,3.33
2022-12-07T16:58:39.750Z,3.33
2022-12-07T17:01:13.279Z,3.26
2022-12-07T17:03:40.230Z,3.40
2022-12-07T17:06:36.299Z,3.45
2022-12-07T17:09:05.387Z,3.47
2022-12-07T17:11:32.371Z,3.57
2022-12-07T17:14:17.502Z,3.58
2022-12-07T17:16:44.110Z,3.64
2022-12-07T17:19:13.377Z,3.59
2022-12-07T17:21:40.093Z,3.58
2022-12-07T17:24:09.555Z,3.65
2022-12-07T17:26:38.877Z,3.56
2022-12-07T17:29:07.395Z,3.64
2022-12-07T17:31:34.265Z,3.56
2022-12-07T17:34:01.238Z,3.55
2022-12-07T17:36:30.446Z,3.54
2022-12-07T17:38:58.029Z,3.45
2022-12-07T17:41:45.616Z,3.43
2022-12-07T17:44:15.094Z,3.41
2022-12-07T17:46:42.089Z,3.33
2022-12-07T17:49:08.726Z,3.41
2022-12-07T17:51:54.635Z,3.24
2022-12-07T17:54:21.435Z,3.06
2022-12-07T17:56:48.122Z,3.04
2022-12-07T17:59:14.779Z,2.97
2022-12-07T18:01:41.731Z,2.93
2022-12-07T18:04:08.589Z,2.99
2022-12-07T18:06:35.864Z,2.98
2022-12-07T18:09:02.612Z,2.98
2022-12-07T18:11:29.149Z,2.99
2022-12-07T18:13:55.629Z,3.00
2022-12-07T18:16:28.089Z,2.95
2022-12-07T18:18:54.792Z,3.00
2022-12-07T18:21:26.803Z,2.95
2022-12-07T18:23:56.212Z,2.90
2022-12-07T18:26:24.753Z,3.01
2022-12-07T18:28:51.742Z,2.97
2022-12-07T18:31:18.725Z,2.98
2022-12-07T18:33:46.331Z,2.91
2022-12-07T18:36:14.494Z,2.99
2022-12-07T18:38:41.549Z,2.98
2022-12-07T18:41:10.417Z,3.03
2022-12-07T18:43:36.941Z,3.11
2022-12-07T18:47:18.875Z,3.07
2022-12-07T18:49:45.387Z,2.97
2022-12-07T18:52:12.065Z,3.04
2022-12-07T18:54:38.955Z,3.16
2022-12-07T18:57:05.459Z,3.10
2022-12-07T18:59:46.843Z,3.13
2022-12-07T19:02:13.248Z,3.10
2022-12-07T19:04:39.618Z,3.10
2022-12-07T19:07:06.109Z,3.10
2022-12-07T19:09:32.594Z,3.03
2022-12-07T19:12:03.157Z,3.01
2022-12-07T19:14:33.255Z,2.90
2022-12-07T19:17:08.570Z,2.94
2022-12-07T19:19:38.269Z,3.04
2022-12-07T19:22:06.654Z,2.88
2022-12-07T19:24:33.760Z,3.04
2022-12-07T19:27:00.790Z,2.86
2022-12-07T19:29:31.382Z,2.97
2022-12-07T19:31:59.811Z,2.88
2022-12-07T19:34:26.566Z,2.89
2022-12-07T19:36:53.109Z,2.88
2022-12-07T19:39:19.601Z,2.84
2022-12-07T19:41:46.683Z,2.85
2022-12-07T19:44:18.577Z,2.74
2022-12-07T19:46:47.259Z,2.78
2022-12-07T19:49:17.568Z,2.87
2022-12-07T19:51:46.647Z,2.79
2022-12-07T19:54:15.127Z,2.90
2022-12-07T19:56:43.045Z,2.88
2022-12-07T19:59:10.238Z,2.77
2022-12-07T20:01:40.744Z,2.87
2022-12-07T20:04:11.247Z,2.83
2022-12-07T20:06:37.791Z,2.83
2022-12-07T20:09:05.327Z,2.89
2022-12-07T20:11:50.666Z,2.95
2022-12-07T20:14:17.571Z,2.92
2022-12-07T20:16:47.013Z,2.90
2022-12-07T20:19:14.878Z,2.84
2022-12-07T20:21:43.047Z,2.86
2022-12-07T20:24:17.625Z,2.84
2022-12-07T20:26:45.783Z,2.74
2022-12-07T20:29:18.305Z,2.81
2022-12-07T20:31:47.035Z,2.78
2022-12-07T20:34:13.710Z,2.80
2022-12-07T20:36:40.412Z,2.66
2022-12-07T20:39:07.412Z,2.64
2022-12-07T20:41:53.244Z,2.69
2022-12-07T20:44:19.850Z,2.93
2022-12-07T20:46:47.098Z,2.86
2022-12-07T20:49:15.377Z,2.81
2022-12-07T20:51:41.904Z,2.71
2022-12-07T20:54:08.702Z,2.88
2022-12-07T20:56:36.133Z,2.85
2022-12-07T20:59:05.506Z,2.90
2022-12-07T21:01:32.157Z,2.79
2022-12-07T21:04:00.626Z,2.66
2022-12-07T21:06:28.694Z,2.62
2022-12-07T21:08:57.464Z,2.63
2022-12-07T21:11:25.770Z,2.72
2022-12-07T21:13:52.350Z,2.72
2022-12-07T21:16:25.621Z,2.67
2022-12-07T21:18:54.702Z,2.59
2022-12-07T21:21:21.378Z,2.62
2022-12-07T21:23:50.692Z,2.55
2022-12-07T21:26:19.923Z,2.52
2022-12-07T21:28:46.954Z,2.58
2022-12-07T21:31:14.457Z,2.40
2022-12-07T21:33:44.082Z,2.54
2022-12-07T21:36:16.149Z,2.39
2022-12-07T21:38:42.977Z,2.52
2022-12-07T21:41:15.613Z,2.56
2022-12-07T21:43:43.300Z,2.57
2022-12-07T21:46:10.401Z,2.55
2022-12-07T21:48:36.957Z,2.55
2022-12-07T21:51:05.918Z,2.48
2022-12-07T21:53:32.813Z,2.56
2022-12-07T21:55:59.307Z,2.45
2022-12-07T21:58:25.871Z,2.55
2022-12-07T22:00:52.341Z,2.55
2022-12-07T22:03:18.967Z,2.53
2022-12-07T22:05:45.330Z,2.45
2022-12-07T22:08:11.781Z,2.47
2022-12-07T22:10:38.380Z,2.51
2022-12-07T22:13:04.941Z,2.53
2022-12-07T22:15:31.464Z,2.55
2022-12-07T22:17:58.039Z,2.55
2022-12-07T22:20:24.549Z,2.55
2022-12-07T22:22:51.137Z,2.52
2022-12-07T22:25:17.806Z,2.53
2022-12-07T22:27:44.359Z,2.56
2022-12-07T22:30:12.170Z,2.47
2022-12-07T22:32:48.326Z,2.52
2022-12-07T22:35:15.487Z,2.43
2022-12-07T22:37:41.975Z,2.32
2022-12-07T22:40:08.874Z,2.48
2022-12-07T22:42:35.445Z,2.31
2022-12-07T22:45:02.255Z,2.42
2022-12-07T22:47:29.007Z,2.45
2022-12-07T22:49:55.654Z,2.34
2022-12-07T22:52:22.194Z,2.37
2022-12-07T22:54:51.298Z,2.28
2022-12-07T22:57:17.647Z,2.35
2022-12-07T22:59:44.221Z,2.30
2022-12-07T23:02:10.567Z,2.33
2022-12-07T23:04:37.007Z,2.38
2022-12-07T23:07:03.428Z,2.40
2022-12-07T23:09:29.921Z,2.40
2022-12-07T23:12:15.178Z,2.40
2022-12-07T23:14:41.774Z,2.44
2022-12-07T23:17:08.198Z,2.42
2022-12-07T23:19:35.213Z,2.38
2022-12-07T23:22:02.048Z,2.35
2022-12-07T23:24:28.837Z,2.35
2022-12-07T23:26:55.601Z,2.24
2022-12-07T23:29:22.106Z,2.20
2022-12-07T23:31:49.522Z,2.15
2022-12-07T23:34:16.000Z,1.97
2022-12-07T23:36:42.429Z,1.93
2022-12-07T23:39:09.868Z,1.79
2022-12-07T23:41:36.220Z,1.66
2022-12-07T23:44:02.997Z,1.52
2022-12-07T23:46:31.903Z,1.48
2022-12-07T23:49:01.564Z,1.31
2022-12-07T23:51:28.503Z,1.26
2022-12-07T23:53:55.714Z,1.13
2022-12-07T23:56:24.758Z,1.08
2022-12-07T23:58:52.176Z,1.02
